Time;durP1;ratioP1;P1;durP2;ratioP2;P2;SDS_P1;SDS_P2;PMS_P1;PMS_P2;Temp;Humidity;BMP_temperature;BMP_pressure;BME280_temperature;BME280_humidity;BME280_pressure;Samples;Min_cycle;Max_cycle;Signal;HPM_P1;HPM_P2
2022/07/28 00:00:05;;;;;;;2.13;0.90;;;;;;;21.10;50.90;99939.44;4898135;29;20032;-81
2022/07/28 00:02:31;;;;;;;2.03;0.70;;;;;;;21.18;50.39;99954.13;4880317;29;20020;-81
2022/07/28 00:04:56;;;;;;;1.73;0.75;;;;;;;21.00;50.76;99924.91;4902167;29;20778;-81
2022/07/28 00:07:22;;;;;;;4.50;1.00;;;;;;;21.03;50.45;99941.75;4897900;29;20384;-80
2022/07/28 00:09:47;;;;;;;2.90;0.73;;;;;;;21.06;51.02;99938.81;4897970;29;20028;-81
2022/07/28 00:12:13;;;;;;;2.40;1.00;;;;;;;20.95;51.36;99926.06;4916101;29;20061;-80
2022/07/28 00:14:38;;;;;;;2.67;0.80;;;;;;;21.06;51.57;99937.94;4899006;29;20024;-81
2022/07/28 00:17:04;;;;;;;2.10;0.90;;;;;;;20.96;50.78;99926.94;4915995;29;20043;-80
2022/07/28 00:19:29;;;;;;;1.30;0.70;;;;;;;21.05;51.74;99933.53;4898562;29;20399;-80
2022/07/28 00:21:55;;;;;;;3.25;0.90;;;;;;;20.86;51.16;99921.38;4915641;29;20155;-80
2022/07/28 00:24:22;;;;;;;3.42;1.15;;;;;;;20.82;52.37;99906.34;4899089;29;20036;-80
2022/07/28 00:26:47;;;;;;;2.97;1.08;;;;;;;21.01;52.63;99932.03;4898724;29;20054;-80
2022/07/28 00:29:13;;;;;;;1.08;0.68;;;;;;;20.87;52.91;99912.28;4915329;29;20025;-81
2022/07/28 00:31:38;;;;;;;3.67;0.70;;;;;;;21.04;51.70;99937.22;4897389;29;20440;-80
2022/07/28 00:34:04;;;;;;;3.33;0.85;;;;;;;20.99;52.45;99928.59;4915672;29;20092;-80
2022/07/28 00:36:29;;;;;;;1.38;0.70;;;;;;;20.98;52.46;99933.13;4880396;29;20088;-80
2022/07/28 00:38:54;;;;;;;1.75;0.68;;;;;;;20.80;52.19;99915.56;4877834;29;20028;-80
2022/07/28 00:41:21;;;;;;;3.08;0.85;;;;;;;20.81;53.18;99918.16;4879890;29;20570;-80
2022/07/28 00:43:50;;;;;;;1.92;0.80;;;;;;;20.70;53.11;99907.31;4895115;29;20499;-80
2022/07/28 00:46:18;;;;;;;3.17;0.80;;;;;;;20.75;52.82;99926.75;4890430;29;20088;-81
2022/07/28 00:48:46;;;;;;;2.92;1.10;;;;;;;20.61;53.11;99912.53;4883685;29;20021;-80
2022/07/28 00:51:13;;;;;;;5.30;1.88;;;;;;;20.53;53.23;99913.09;4879705;29;20381;-80
2022/07/28 00:53:39;;;;;;;2.55;0.88;;;;;;;20.44;54.18;99908.41;4896385;29;20524;-80
2022/07/28 00:56:06;;;;;;;1.80;0.85;;;;;;;20.42;54.31;99901.38;4880339;29;20120;-80
2022/07/28 00:58:31;;;;;;;4.75;1.08;;;;;;;20.45;54.09;99904.72;4880098;29;20127;-80
2022/07/28 01:00:57;;;;;;;1.85;1.40;;;;;;;20.37;54.54;99898.16;4879297;29;20036;-80
2022/07/28 01:03:24;;;;;;;2.50;0.70;;;;;;;20.41;54.45;99919.41;4897603;29;20127;-80
2022/07/28 01:06:20;;;;;;;1.25;0.88;;;;;;;20.18;54.70;99876.19;4883544;29;20091;-80
2022/07/28 01:09:05;;;;;;;1.75;0.68;;;;;;;20.31;54.89;99918.38;4882966;29;20457;-81
2022/07/28 01:11:31;;;;;;;3.05;0.98;;;;;;;20.32;54.97;99909.31;4900139;29;20468;-80
2022/07/28 01:14:22;;;;;;;1.95;0.98;;;;;;;20.26;55.34;99912.44;4899715;29;20084;-80
2022/07/28 01:16:59;;;;;;;2.78;1.10;;;;;;;20.07;55.84;99885.03;4896355;29;20119;-80
2022/07/28 01:19:34;;;;;;;1.35;0.90;;;;;;;20.16;55.91;99900.63;4898463;29;20465;-80
2022/07/28 01:22:02;;;;;;;1.58;0.70;;;;;;;20.09;56.26;99888.50;4881539;29;20024;-80
2022/07/28 01:24:37;;;;;;;1.40;0.95;;;;;;;20.13;55.71;99886.44;4882733;29;20040;-80
2022/07/28 01:27:22;;;;;;;2.53;0.80;;;;;;;20.05;56.44;99873.47;4882953;29;20342;-80
2022/07/28 01:30:03;;;;;;;2.65;0.80;;;;;;;20.06;56.44;99894.13;4867700;29;20048;-80
2022/07/28 01:32:56;;;;;;;2.92;1.20;;;;;;;19.79;56.71;99858.34;4883061;29;20029;-80
2022/07/28 01:35:34;;;;;;;1.48;0.70;;;;;;;20.01;56.40;99884.63;4883059;29;20536;-80
2022/07/28 01:38:04;;;;;;;3.50;0.90;;;;;;;19.88;57.08;99871.19;4899833;29;20040;-80
2022/07/28 01:40:33;;;;;;;3.65;1.23;;;;;;;20.00;57.14;99886.47;4883096;29;20056;-80
2022/07/28 01:43:01;;;;;;;1.88;0.80;;;;;;;19.91;57.77;99884.44;4883339;29;20029;-80
2022/07/28 01:45:28;;;;;;;3.97;1.17;;;;;;;19.71;56.80;99863.44;4899638;29;20835;-80
2022/07/28 01:47:55;;;;;;;2.63;0.85;;;;;;;19.74;56.93;99860.50;4899914;29;20039;-80
2022/07/28 01:50:25;;;;;;;1.80;0.75;;;;;;;19.54;57.31;99842.19;4882439;29;20063;-80
2022/07/28 01:52:52;;;;;;;1.67;0.80;;;;;;;19.54;57.14;99847.56;4883058;29;20032;-80
2022/07/28 01:55:20;;;;;;;1.38;0.93;;;;;;;19.74;57.51;99878.53;4899468;29;20032;-80
2022/07/28 01:57:48;;;;;;;1.95;0.88;;;;;;;19.71;57.90;99882.31;4881491;29;20407;-79
2022/07/28 02:00:14;;;;;;;1.38;0.90;;;;;;;19.60;58.24;99858.78;4898685;29;20108;-80
2022/07/28 02:02:44;;;;;;;1.70;0.82;;;;;;;19.56;58.45;99856.44;4899217;29;20036;-80
2022/07/28 02:05:13;;;;;;;1.33;0.77;;;;;;;19.67;58.79;99875.41;4882327;29;20412;-79
2022/07/28 02:07:41;;;;;;;1.77;0.90;;;;;;;19.49;58.33;99847.03;4882296;29;20044;-80
2022/07/28 02:10:08;;;;;;;2.63;1.00;;;;;;;19.40;58.33;99828.84;4898920;29;20459;-80
2022/07/28 02:12:37;;;;;;;1.35;0.80;;;;;;;19.52;59.38;99849.53;4900099;29;20024;-80
2022/07/28 02:15:05;;;;;;;1.17;0.90;;;;;;;19.48;59.97;99843.50;4882650;29;20056;-80
2022/07/28 02:17:32;;;;;;;2.88;1.50;;;;;;;19.47;58.16;99851.72;4899140;29;20127;-80
2022/07/28 02:20:00;;;;;;;2.40;0.93;;;;;;;19.50;58.35;99862.28;4881884;29;20028;-80
2022/07/28 02:22:27;;;;;;;1.30;0.80;;;;;;;19.41;59.00;99841.34;4882462;29;20037;-80
2022/07/28 02:24:54;;;;;;;1.23;0.80;;;;;;;19.44;58.98;99851.91;4899142;29;20510;-80
2022/07/28 02:27:43;;;;;;;4.10;0.77;;;;;;;19.31;58.71;99840.25;4899002;29;20453;-80
2022/07/28 02:30:16;;;;;;;3.70;0.90;;;;;;;19.27;59.58;99838.75;4898399;29;20426;-80
2022/07/28 02:32:55;;;;;;;2.20;0.90;;;;;;;19.37;59.69;99847.94;4899210;29;20025;-80
2022/07/28 02:35:32;;;;;;;2.38;0.98;;;;;;;19.27;59.06;99836.91;4888641;29;20055;-80
2022/07/28 02:38:01;;;;;;;1.98;1.17;;;;;;;19.15;59.25;99818.03;4899323;29;20056;-80
2022/07/28 02:40:34;;;;;;;1.77;0.82;;;;;;;19.29;58.91;99847.63;4898046;29;20029;-80
2022/07/28 02:43:01;;;;;;;1.48;0.80;;;;;;;19.26;59.71;99847.78;4896940;29;20048;-80
2022/07/28 02:45:30;;;;;;;1.83;0.80;;;;;;;19.18;59.71;99850.16;4881271;29;20430;-80
2022/07/28 02:48:00;;;;;;;1.40;0.80;;;;;;;19.08;59.66;99840.97;4898830;29;20032;-81
2022/07/28 02:50:28;;;;;;;3.50;1.55;;;;;;;19.13;59.93;99841.53;4884735;29;20499;-80
2022/07/28 02:52:58;;;;;;;3.17;1.05;;;;;;;19.15;61.09;99850.38;4898872;29;20031;-80
2022/07/28 02:55:24;;;;;;;1.20;0.57;;;;;;;19.11;59.45;99844.34;4897788;29;20519;-80
2022/07/28 02:57:51;;;;;;;10.57;1.33;;;;;;;18.95;59.90;99818.53;4898956;29;20024;-80
2022/07/28 03:00:17;;;;;;;3.03;1.02;;;;;;;18.88;61.50;99817.28;4897466;29;20096;-80
2022/07/28 03:02:45;;;;;;;8.95;1.25;;;;;;;18.96;60.32;99839.16;4897359;29;20119;-80
2022/07/28 03:05:13;;;;;;;2.15;0.95;;;;;;;18.90;60.97;99826.97;4898857;29;20028;-80
2022/07/28 03:07:40;;;;;;;2.17;1.02;;;;;;;18.91;62.31;99836.75;4899025;29;20792;-80
2022/07/28 03:10:06;;;;;;;3.13;1.25;;;;;;;18.89;61.34;99832.47;4898401;29;20096;-80
2022/07/28 03:12:32;;;;;;;2.22;0.80;;;;;;;18.93;60.35;99839.38;4881100;29;20020;-80
2022/07/28 03:14:57;;;;;;;2.13;0.90;;;;;;;18.88;61.18;99826.19;4881052;29;20036;-80
2022/07/28 03:17:23;;;;;;;1.95;0.75;;;;;;;18.85;61.43;99830.94;4881277;29;20031;-80
2022/07/28 03:19:48;;;;;;;1.98;1.08;;;;;;;18.92;60.35;99853.81;4881402;29;20100;-80
2022/07/28 03:22:14;;;;;;;2.78;1.25;;;;;;;18.78;60.32;99835.03;4881955;29;20029;-81
2022/07/28 03:24:51;;;;;;;1.48;0.90;;;;;;;18.85;60.97;99852.50;4881380;29;20170;-80
2022/07/28 03:27:30;;;;;;;8.45;1.15;;;;;;;18.88;61.56;99863.09;4897164;29;20055;-79
2022/07/28 03:30:08;;;;;;;7.30;1.38;;;;;;;18.76;61.59;99848.63;4897560;29;20029;-80
2022/07/28 03:32:37;;;;;;;1.80;0.98;;;;;;;18.79;61.53;99858.31;4880563;29;20031;-80
2022/07/28 03:35:04;;;;;;;2.08;0.82;;;;;;;18.80;61.90;99854.66;4897360;29;20056;-80
2022/07/28 03:37:39;;;;;;;3.42;1.00;;;;;;;18.72;61.88;99863.25;4897298;29;20055;-80
2022/07/28 03:40:08;;;;;;;1.90;1.08;;;;;;;18.68;61.46;99855.50;4897826;29;20033;-80
2022/07/28 03:42:35;;;;;;;3.70;0.80;;;;;;;18.56;61.48;99850.94;4881132;29;20464;-80
2022/07/28 03:45:01;;;;;;;5.38;1.00;;;;;;;18.58;61.86;99843.63;4881064;29;20032;-80
2022/07/28 03:47:27;;;;;;;3.35;0.98;;;;;;;18.50;62.20;99833.34;4896793;29;20535;-80
2022/07/28 03:49:52;;;;;;;1.77;0.80;;;;;;;18.75;62.41;99862.19;4896368;29;20032;-80
2022/07/28 03:52:18;;;;;;;2.30;0.90;;;;;;;18.61;61.45;99838.03;4879951;29;20100;-80
2022/07/28 03:54:44;;;;;;;5.47;0.95;;;;;;;18.69;61.49;99846.44;4879880;29;20175;-80
2022/07/28 03:57:10;;;;;;;2.10;0.90;;;;;;;18.66;61.89;99849.34;4896648;29;20068;-80
2022/07/28 03:59:36;;;;;;;2.78;1.00;;;;;;;18.61;61.76;99848.78;4896669;29;20380;-80
2022/07/28 04:02:01;;;;;;;3.17;1.05;;;;;;;18.41;61.34;99825.03;4879860;29;20039;-80
2022/07/28 04:04:28;;;;;;;0.75;0.60;;;;;;;18.56;61.44;99850.94;4895772;29;20032;-80
2022/07/28 04:06:53;;;;;;;2.95;0.90;;;;;;;18.45;61.39;99840.03;4896226;29;20140;-80
2022/07/28 04:09:19;;;;;;;4.22;0.80;;;;;;;18.46;62.05;99845.31;4878897;29;20082;-80
2022/07/28 04:11:44;;;;;;;2.20;0.90;;;;;;;18.43;62.34;99839.28;4879606;29;20776;-80
2022/07/28 04:14:09;;;;;;;1.92;0.85;;;;;;;18.51;62.09;99847.69;4896252;29;20029;-80
2022/07/28 04:16:35;;;;;;;3.80;0.90;;;;;;;18.47;62.95;99847.03;4879072;29;20043;-80
2022/07/28 04:19:00;;;;;;;1.35;1.02;;;;;;;18.53;63.18;99861.94;4896600;29;20628;-80
2022/07/28 04:21:26;;;;;;;2.40;0.90;;;;;;;18.42;62.78;99848.31;4880365;29;20507;-80
2022/07/28 04:23:52;;;;;;;3.42;1.00;;;;;;;18.42;63.04;99854.56;4879906;29;20036;-80
2022/07/28 04:26:17;;;;;;;4.30;0.80;;;;;;;18.49;62.91;99855.88;4879667;29;20111;-80
2022/07/28 04:28:44;;;;;;;3.45;1.00;;;;;;;18.57;63.58;99863.44;4896556;29;20055;-80
2022/07/28 04:31:09;;;;;;;1.05;0.60;;;;;;;18.42;62.78;99843.78;4879034;29;20404;-80
2022/07/28 04:33:35;;;;;;;2.33;1.00;;;;;;;18.34;63.02;99846.97;4897027;29;20146;-80
2022/07/28 04:36:01;;;;;;;2.58;0.70;;;;;;;18.44;64.48;99843.69;4879196;29;20025;-80
2022/07/28 04:38:27;;;;;;;2.95;1.10;;;;;;;18.59;64.00;99858.81;4878630;29;20029;-80
2022/07/28 04:40:53;;;;;;;1.92;1.00;;;;;;;18.49;62.66;99845.09;4879552;29;20400;-80
2022/07/28 04:43:18;;;;;;;4.55;1.30;;;;;;;18.47;63.20;99824.66;4896131;29;20084;-81
2022/07/28 04:45:45;;;;;;;5.97;1.05;;;;;;;18.61;62.96;99860.44;4896640;29;20033;-80
2022/07/28 04:48:11;;;;;;;2.80;1.00;;;;;;;18.51;63.05;99832.41;4896612;29;20369;-80
2022/07/28 04:50:39;;;;;;;2.65;1.13;;;;;;;18.68;63.70;99836.66;4896562;29;20135;-80
2022/07/28 04:53:05;;;;;;;1.45;0.80;;;;;;;18.66;62.27;99828.66;4883890;29;20115;-80
2022/07/28 04:55:31;;;;;;;2.92;1.20;;;;;;;18.81;62.66;99845.59;4881850;29;20128;-80
2022/07/28 04:57:56;;;;;;;2.75;1.23;;;;;;;18.95;61.92;99853.59;4896492;29;20062;-79
2022/07/28 05:00:22;;;;;;;5.82;1.02;;;;;;;19.03;61.20;99845.84;4907103;29;20040;-80
2022/07/28 05:02:48;;;;;;;1.50;0.98;;;;;;;19.09;61.74;99832.78;4894891;29;20059;-80
2022/07/28 05:05:14;;;;;;;1.83;0.90;;;;;;;19.19;60.98;99841.13;4890936;29;20029;-80
2022/07/28 05:07:40;;;;;;;2.72;0.93;;;;;;;19.25;61.00;99838.84;4879502;29;20518;-80
2022/07/28 05:10:07;;;;;;;2.75;1.05;;;;;;;19.27;60.99;99838.75;4878869;29;20036;-80
2022/07/28 05:12:33;;;;;;;3.10;0.90;;;;;;;19.30;60.30;99847.50;4879594;29;20028;-83
2022/07/28 05:14:59;;;;;;;2.75;1.50;;;;;;;19.34;61.18;99842.75;4878864;29;20028;-80
2022/07/28 05:17:25;;;;;;;2.08;0.82;;;;;;;19.39;60.93;99837.88;4879086;29;20571;-80
2022/07/28 05:19:50;;;;;;;1.60;0.90;;;;;;;19.43;61.33;99842.09;4879396;29;20029;-80
2022/07/28 05:22:16;;;;;;;1.15;0.80;;;;;;;19.43;61.20;99842.09;4895918;29;20539;-80
2022/07/28 05:24:42;;;;;;;4.30;0.90;;;;;;;19.36;62.04;99836.28;4879134;29;20039;-80
2022/07/28 05:27:07;;;;;;;1.98;0.80;;;;;;;19.36;61.25;99838.09;4879308;29;20729;-80
2022/07/28 05:29:33;;;;;;;3.40;1.10;;;;;;;19.50;61.76;99846.09;4895271;29;20035;-80
2022/07/28 05:31:58;;;;;;;3.75;1.17;;;;;;;19.67;61.37;99855.66;4878454;29;20038;-80
2022/07/28 05:34:24;;;;;;;3.05;1.02;;;;;;;19.72;61.45;99848.94;4878633;29;20032;-80
2022/07/28 05:36:49;;;;;;;5.25;0.98;;;;;;;19.73;61.28;99839.91;4878681;29;20758;-80
2022/07/28 05:39:15;;;;;;;2.22;0.98;;;;;;;19.97;61.05;99851.59;4895529;29;20136;-80
2022/07/28 05:41:40;;;;;;;2.60;0.95;;;;;;;20.01;60.99;99836.91;4895622;29;20480;-81
2022/07/28 05:44:06;;;;;;;2.95;1.00;;;;;;;20.04;59.46;99835.78;4895633;29;20647;-80
2022/07/28 05:46:31;;;;;;;5.85;1.27;;;;;;;20.23;59.73;99847.84;4895163;29;20075;-80
2022/07/28 05:48:57;;;;;;;2.45;1.30;;;;;;;20.43;59.31;99849.91;4895347;29;20025;-80
2022/07/28 05:51:23;;;;;;;2.85;1.10;;;;;;;20.63;59.40;99868.19;4899235;29;20174;-80
2022/07/28 05:53:48;;;;;;;2.95;1.50;;;;;;;20.66;58.79;99851.75;4898728;29;20626;-80
2022/07/28 05:56:13;;;;;;;5.13;1.80;;;;;;;20.80;58.15;99848.84;4882415;29;20025;-81
2022/07/28 05:58:39;;;;;;;4.13;0.90;;;;;;;20.87;58.03;99844.69;4899367;29;20032;-80
2022/07/28 06:01:04;;;;;;;2.97;0.90;;;;;;;21.00;57.55;99838.34;4881903;29;20123;-80
2022/07/28 06:03:31;;;;;;;0.93;0.65;;;;;;;21.13;56.07;99852.66;4882326;29;20039;-80
2022/07/28 06:05:57;;;;;;;2.17;0.80;;;;;;;21.29;56.31;99864.84;4881405;29;20028;-80
2022/07/28 06:08:23;;;;;;;2.83;0.80;;;;;;;21.37;55.75;99864.22;4898625;29;20438;-80
2022/07/28 06:11:00;;;;;;;1.30;0.70;;;;;;;21.44;56.80;99860.06;4898302;29;20027;-80
2022/07/28 06:13:26;;;;;;;1.70;0.80;;;;;;;21.39;54.67;99854.16;4881602;29;20036;-79
2022/07/28 06:15:52;;;;;;;2.67;0.90;;;;;;;21.52;57.13;99842.25;4897847;29;20382;-80
2022/07/28 06:18:19;;;;;;;6.88;0.98;;;;;;;21.61;55.88;99851.47;4897587;29;20036;-80
2022/07/28 06:20:45;;;;;;;4.15;1.17;;;;;;;21.67;55.04;99850.97;4898314;29;20029;-80
2022/07/28 06:23:11;;;;;;;1.88;0.70;;;;;;;21.80;53.34;99854.44;4881283;29;20473;-80
2022/07/28 06:25:37;;;;;;;5.07;1.10;;;;;;;22.03;55.38;99867.84;4881996;29;20136;-80
2022/07/28 06:28:03;;;;;;;1.90;0.90;;;;;;;22.14;54.10;99872.38;4898449;29;20434;-80
2022/07/28 06:30:29;;;;;;;2.55;1.15;;;;;;;22.12;54.90;99863.53;4880820;29;20024;-80
2022/07/28 06:32:56;;;;;;;2.60;0.93;;;;;;;22.10;53.23;99844.69;4881340;29;20028;-80
2022/07/28 06:35:22;;;;;;;2.03;0.90;;;;;;;22.37;54.98;99868.63;4897141;29;20036;-80
2022/07/28 06:37:49;;;;;;;2.08;0.98;;;;;;;22.53;54.82;99869.09;4887174;29;20387;-79
2022/07/28 06:40:16;;;;;;;3.40;1.00;;;;;;;22.55;53.53;99844.56;4904875;29;20503;-80
2022/07/28 06:42:43;;;;;;;2.75;0.80;;;;;;;22.83;53.43;99855.63;4896999;29;20731;-80
2022/07/28 06:45:09;;;;;;;5.28;0.98;;;;;;;23.03;53.25;99862.94;4911189;29;20036;-80
2022/07/28 06:47:35;;;;;;;2.95;0.90;;;;;;;23.11;51.77;99857.72;4916934;29;20082;-80
2022/07/28 06:50:02;;;;;;;5.70;1.17;;;;;;;23.21;50.73;99863.22;4915390;29;20408;-80
2022/07/28 06:52:27;;;;;;;2.47;1.10;;;;;;;23.34;51.34;99862.03;4897554;29;20088;-80
2022/07/28 06:54:53;;;;;;;3.17;0.82;;;;;;;23.42;50.78;99867.69;4897343;29;20445;-80
2022/07/28 06:57:20;;;;;;;4.28;1.17;;;;;;;23.60;50.97;99867.03;4880172;29;20429;-80
2022/07/28 06:59:47;;;;;;;4.63;1.05;;;;;;;23.84;50.12;99865.72;4877796;29;20056;-80
2022/07/28 07:02:13;;;;;;;2.92;0.93;;;;;;;23.99;49.11;99864.38;4879539;29;20127;-80
2022/07/28 07:04:39;;;;;;;3.00;0.93;;;;;;;24.05;48.50;99865.69;4897948;29;20032;-80
2022/07/28 07:07:04;;;;;;;2.55;0.90;;;;;;;24.18;49.07;99856.28;4880463;29;20057;-81
2022/07/28 07:09:30;;;;;;;2.38;0.80;;;;;;;24.39;48.40;99861.59;4897359;29;20047;-81
2022/07/28 07:11:55;;;;;;;3.42;1.20;;;;;;;24.64;48.67;99861.06;4891607;29;20036;-81
2022/07/28 07:14:21;;;;;;;1.73;1.00;;;;;;;24.88;47.13;99863.38;4882203;29;20036;-81
2022/07/28 07:16:47;;;;;;;1.77;1.08;;;;;;;24.98;46.68;99859.66;4861770;29;20507;-81
2022/07/28 07:19:12;;;;;;;3.97;1.00;;;;;;;25.05;45.95;99840.88;4878648;29;20041;-81
2022/07/28 07:21:37;;;;;;;3.25;0.95;;;;;;;25.01;46.47;99799.47;4861753;29;20080;-81
2022/07/28 07:24:03;;;;;;;4.88;0.90;;;;;;;25.52;45.66;99848.97;4861882;29;20104;-82
2022/07/28 07:26:28;;;;;;;3.13;0.98;;;;;;;25.62;45.91;99836.19;4880759;29;20738;-82
2022/07/28 07:28:54;;;;;;;3.42;1.20;;;;;;;25.81;44.76;99857.03;4880109;29;20041;-82
2022/07/28 07:31:19;;;;;;;3.30;1.48;;;;;;;26.01;43.86;99861.44;4877512;29;20036;-82
2022/07/28 07:33:45;;;;;;;10.07;1.58;;;;;;;26.12;44.93;99847.59;4886508;29;20024;-82
2022/07/28 07:36:10;;;;;;;6.30;0.90;;;;;;;26.61;43.79;99862.63;4880436;29;20032;-81
2022/07/28 07:38:37;;;;;;;2.33;0.85;;;;;;;26.73;43.18;99855.97;4897833;29;20480;-82
2022/07/28 07:41:03;;;;;;;3.80;0.93;;;;;;;27.18;43.14;99851.25;4897425;29;20414;-82
2022/07/28 07:43:28;;;;;;;3.08;1.02;;;;;;;27.37;41.24;99829.22;4876911;29;20028;-81
2022/07/28 07:45:54;;;;;;;3.17;1.10;;;;;;;27.62;41.75;99836.53;4874705;29;20123;-81
2022/07/28 07:48:19;;;;;;;2.35;1.02;;;;;;;27.72;41.83;99842.75;4861047;29;20033;-82
2022/07/28 07:50:44;;;;;;;1.45;0.75;;;;;;;27.84;41.33;99830.50;4860896;29;20513;-81
2022/07/28 07:53:10;;;;;;;2.38;1.02;;;;;;;28.31;40.54;99860.97;4878843;29;20113;-82
2022/07/28 07:55:35;;;;;;;2.33;0.90;;;;;;;28.39;39.77;99850.91;4878161;29;20930;-81
2022/07/28 07:58:01;;;;;;;3.53;1.13;;;;;;;28.37;40.34;99844.75;4896544;29;20032;-82
2022/07/28 08:00:27;;;;;;;5.50;1.10;;;;;;;28.45;39.59;99831.09;4889399;29;20043;-82
2022/07/28 08:02:52;;;;;;;3.80;1.02;;;;;;;28.58;39.80;99838.00;4871750;29;20041;-82
2022/07/28 08:05:18;;;;;;;6.47;1.05;;;;;;;28.86;39.78;99842.13;4888603;29;20025;-82
2022/07/28 08:07:43;;;;;;;2.90;1.00;;;;;;;29.10;38.94;99842.16;4871680;29;20057;-82
2022/07/28 08:10:10;;;;;;;2.60;1.10;;;;;;;29.28;38.28;99848.31;4888616;29;20044;-81
2022/07/28 08:12:35;;;;;;;5.00;1.50;;;;;;;29.55;39.05;99839.72;4885708;29;20119;-82
2022/07/28 08:15:02;;;;;;;6.70;0.95;;;;;;;29.79;37.93;99839.69;4874091;29;20116;-82
2022/07/28 08:17:27;;;;;;;6.03;1.20;;;;;;;29.92;37.47;99850.09;4870802;29;20044;-82
2022/07/28 08:19:53;;;;;;;4.50;1.33;;;;;;;29.90;37.45;99839.28;4862136;29;20021;-82
2022/07/28 08:22:18;;;;;;;4.45;1.92;;;;;;;29.81;38.70;99826.66;4882054;29;20032;-83
2022/07/28 08:24:44;;;;;;;2.63;1.15;;;;;;;30.06;37.28;99836.50;4883444;29;20033;-82
2022/07/28 08:27:10;;;;;;;5.47;0.90;;;;;;;29.75;38.51;99842.94;4863864;29;20028;-82
2022/07/28 08:29:35;;;;;;;6.75;1.33;;;;;;;29.86;37.73;99837.09;4891020;29;20047;-83
2022/07/28 08:32:04;;;;;;;3.15;1.10;;;;;;;29.91;38.46;99827.31;4891754;29;20178;-81
2022/07/28 08:34:31;;;;;;;14.65;1.60;;;;;;;30.10;37.92;99821.38;4875677;29;20037;-82
2022/07/28 08:36:56;;;;;;;2.97;1.00;;;;;;;30.01;37.52;99824.34;4875491;29;20063;-81
2022/07/28 08:39:22;;;;;;;4.47;1.27;;;;;;;29.64;38.84;99825.81;4895747;29;20056;-82
2022/07/28 08:42:03;;;;;;;3.55;0.95;;;;;;;29.19;39.04;99808.25;4878711;29;20034;-81
2022/07/28 08:44:49;;;;;;;2.75;1.20;;;;;;;29.74;39.50;99842.09;4888585;29;20029;-81
2022/07/28 08:47:16;;;;;;;4.22;1.20;;;;;;;30.41;39.67;99841.47;4875972;29;20460;-81
2022/07/28 08:49:42;;;;;;;5.97;1.40;;;;;;;30.49;36.87;99832.34;4884196;29;20037;-82
2022/07/28 08:52:10;;;;;;;4.47;1.75;;;;;;;30.63;36.53;99837.91;4866931;29;20040;-82
2022/07/28 08:54:40;;;;;;;7.47;1.80;;;;;;;30.78;37.61;99844.38;4883871;29;20847;-82
2022/07/28 08:57:07;;;;;;;5.43;1.33;;;;;;;30.63;38.56;99818.69;4881391;29;20831;-82
2022/07/28 08:59:34;;;;;;;4.97;1.38;;;;;;;30.55;38.98;99832.50;4893832;29;20059;-81
2022/07/28 09:02:00;;;;;;;2.50;1.30;;;;;;;30.65;36.91;99829.50;4891305;29;20032;-81
2022/07/28 09:04:25;;;;;;;4.57;1.30;;;;;;;30.50;38.00;99840.41;4887012;29;20040;-80
2022/07/28 09:06:51;;;;;;;3.03;1.30;;;;;;;30.36;38.22;99816.47;4873323;29;20053;-82
2022/07/28 09:09:17;;;;;;;4.20;1.17;;;;;;;30.67;37.81;99827.44;4891224;29;20035;-81
2022/07/28 09:11:42;;;;;;;5.80;1.50;;;;;;;31.10;37.21;99831.41;4890408;29;20040;-81
2022/07/28 09:14:08;;;;;;;4.63;1.20;;;;;;;31.37;37.22;99830.88;4871984;29;20037;-81
2022/07/28 09:16:33;;;;;;;2.75;1.00;;;;;;;31.44;37.09;99824.41;4877185;29;20147;-82
2022/07/28 09:18:59;;;;;;;4.93;1.17;;;;;;;31.37;37.22;99828.13;4871730;29;20039;-81
2022/07/28 09:21:24;;;;;;;4.57;1.20;;;;;;;31.72;37.38;99819.13;4891709;29;20489;-82
2022/07/28 09:23:50;;;;;;;3.03;1.17;;;;;;;32.08;36.99;99801.69;4879914;29;20115;-82
2022/07/28 09:26:17;;;;;;;6.32;1.50;;;;;;;31.85;35.99;99798.19;4887467;29;20052;-82
2022/07/28 09:28:49;;;;;;;2.17;1.00;;;;;;;31.99;36.83;99800.06;4900553;29;20492;-81
2022/07/28 09:31:16;;;;;;;3.25;1.20;;;;;;;32.15;36.67;99796.25;4872225;29;20032;-82
2022/07/28 09:33:55;;;;;;;5.03;1.50;;;;;;;32.01;35.98;99797.16;4870078;29;20037;-82
2022/07/28 09:36:21;;;;;;;4.38;1.30;;;;;;;31.92;36.39;99801.03;4880746;29;20076;-82
2022/07/28 09:38:47;;;;;;;2.28;1.30;;;;;;;31.96;36.74;99808.69;4880524;29;20029;-81
2022/07/28 09:41:13;;;;;;;2.45;1.17;;;;;;;32.33;36.47;99804.94;4882759;29;20492;-81
2022/07/28 09:43:43;;;;;;;4.32;1.40;;;;;;;32.42;35.50;99797.47;4882370;29;20024;-80
2022/07/28 09:46:10;;;;;;;4.50;1.42;;;;;;;32.33;35.95;99793.94;4899452;29;20048;-81
2022/07/28 09:48:47;;;;;;;3.08;1.50;;;;;;;32.12;36.74;99802.16;4900815;29;20063;-81
2022/07/28 09:51:13;;;;;;;2.15;1.60;;;;;;;31.43;37.59;99800.72;4899822;29;20096;-81
2022/07/28 09:53:40;;;;;;;5.30;1.75;;;;;;;31.26;37.96;99781.78;4900216;29;20081;-81
2022/07/28 09:56:07;;;;;;;3.88;1.50;;;;;;;31.78;37.32;99788.94;4880812;29;20033;-82
2022/07/28 09:58:32;;;;;;;3.55;1.40;;;;;;;31.93;37.66;99777.97;4867129;29;20394;-81
2022/07/28 10:01:12;;;;;;;2.85;1.55;;;;;;;32.11;37.52;99793.03;4879607;29;20078;-81
2022/07/28 10:03:39;;;;;;;5.55;1.60;;;;;;;31.88;37.79;99788.69;4879447;29;20590;-82
2022/07/28 10:06:10;;;;;;;4.97;1.75;;;;;;;31.16;37.37;99781.19;4881579;29;20061;-81
2022/07/28 10:08:41;;;;;;;2.83;1.55;;;;;;;30.87;39.81;99788.31;4879125;29;20033;-81
2022/07/28 10:11:08;;;;;;;3.60;1.77;;;;;;;30.91;38.92;99772.31;4880649;29;20116;-81
2022/07/28 10:13:34;;;;;;;3.88;1.83;;;;;;;31.23;38.64;99779.41;4876766;29;20506;-81
2022/07/28 10:16:09;;;;;;;3.40;1.73;;;;;;;31.33;38.82;99771.78;4880988;29;20033;-81
2022/07/28 10:18:34;;;;;;;4.18;1.67;;;;;;;31.62;38.45;99763.53;4880903;29;20123;-81
2022/07/28 10:21:06;;;;;;;2.97;1.52;;;;;;;31.73;37.76;99763.06;4898027;29;20396;-81
2022/07/28 10:23:35;;;;;;;3.63;1.47;;;;;;;31.79;37.82;99752.16;4897799;29;20414;-81
2022/07/28 10:26:02;;;;;;;6.43;2.38;;;;;;;32.26;37.41;99770.97;4869503;29;20741;-81
2022/07/28 10:28:29;;;;;;;5.28;1.77;;;;;;;32.74;37.23;99774.91;4884076;29;20429;-81
2022/07/28 10:31:00;;;;;;;4.70;1.92;;;;;;;33.11;36.33;99769.13;4872159;29;20036;-82
2022/07/28 10:33:30;;;;;;;5.22;2.00;;;;;;;33.52;36.62;99774.75;4865453;29;20040;-81
2022/07/28 10:35:58;;;;;;;3.72;2.00;;;;;;;33.66;35.64;99760.00;4886219;29;20408;-82
2022/07/28 10:38:33;;;;;;;5.53;2.03;;;;;;;34.08;35.37;99757.03;4896255;29;20084;-82
2022/07/28 10:41:02;;;;;;;2.78;1.58;;;;;;;34.34;34.33;99754.38;4896141;29;20055;-82
2022/07/28 10:43:30;;;;;;;3.15;1.77;;;;;;;34.57;33.51;99754.88;4892487;29;20503;-83
2022/07/28 10:46:01;;;;;;;4.60;2.08;;;;;;;34.80;33.98;99760.00;4872085;29;20028;-82
2022/07/28 10:48:26;;;;;;;3.58;1.90;;;;;;;34.69;35.06;99747.69;4878466;29;20062;-82
2022/07/28 10:50:53;;;;;;;3.10;1.88;;;;;;;34.87;34.05;99739.63;4883159;29;20028;-82
2022/07/28 10:53:45;;;;;;;3.22;1.80;;;;;;;35.06;34.31;99751.78;4879547;29;20048;-82
2022/07/28 10:56:22;;;;;;;4.85;1.90;;;;;;;34.90;34.16;99741.97;4870646;29;20042;-82
2022/07/28 10:59:10;;;;;;;8.13;2.35;;;;;;;34.65;34.05;99742.78;4884600;29;20599;-82
2022/07/28 11:01:37;;;;;;;3.47;2.20;;;;;;;34.95;34.54;99736.66;4882323;29;20088;-81
2022/07/28 11:04:03;;;;;;;2.83;1.77;;;;;;;35.24;33.78;99749.22;4896907;29;20048;-82
2022/07/28 11:06:34;;;;;;;2.97;1.70;;;;;;;35.11;33.54;99754.75;4867347;29;20052;-82
2022/07/28 11:09:15;;;;;;;3.73;2.10;;;;;;;35.09;33.38;99743.88;4881372;29;20029;-82
2022/07/28 11:11:42;;;;;;;4.90;2.30;;;;;;;34.79;34.07;99731.53;4891158;29;20092;-82
2022/07/28 11:14:28;;;;;;;3.88;2.05;;;;;;;35.05;33.91;99742.63;4878836;29;20052;-82
2022/07/28 11:16:59;;;;;;;4.10;1.73;;;;;;;35.05;33.63;99756.44;4898391;29;20035;-81
2022/07/28 11:19:27;;;;;;;4.35;2.05;;;;;;;35.01;35.07;99721.97;4879285;29;20137;-81
2022/07/28 11:22:18;;;;;;;4.10;1.83;;;;;;;35.64;33.09;99740.63;4881389;29;20084;-81
2022/07/28 11:24:55;;;;;;;5.35;2.17;;;;;;;35.83;32.83;99736.94;4883145;29;20108;-81
2022/07/28 11:27:44;;;;;;;4.25;2.25;;;;;;;35.56;33.33;99740.88;4868154;29;20143;-81
2022/07/28 11:30:31;;;;;;;4.93;2.30;;;;;;;35.72;33.78;99745.06;4877922;29;20040;-81
2022/07/28 11:32:58;;;;;;;3.10;2.25;;;;;;;36.06;32.67;99732.84;4873955;29;20029;-81
2022/07/28 11:35:28;;;;;;;6.00;2.53;;;;;;;36.11;32.25;99713.66;4895817;29;20032;-81
2022/07/28 11:37:59;;;;;;;3.35;2.03;;;;;;;36.37;32.48;99727.38;4864447;29;20029;-81